createdAt,value
2018-12-20T00:01:29.000Z,99853
2018-12-20T00:03:29.000Z,99853
2018-12-20T00:05:29.000Z,99844
2018-12-20T00:07:29.000Z,99851
2018-12-20T00:09:29.000Z,99847
2018-12-20T00:11:14.000Z,99853
2018-12-20T00:12:44.000Z,99858
2018-12-20T00:13:44.000Z,99850
2018-12-20T00:15:44.000Z,99844
2018-12-20T00:17:44.000Z,99848
2018-12-20T00:19:44.000Z,99849
2018-12-20T00:20:44.000Z,99848
2018-12-20T00:22:44.000Z,99853
2018-12-20T00:24:14.000Z,99848
2018-12-20T00:26:29.000Z,99844
2018-12-20T00:27:44.000Z,99854
2018-12-20T00:29:29.000Z,99850
2018-12-20T00:30:44.000Z,99851
2018-12-20T00:32:29.000Z,99846
2018-12-20T00:34:14.000Z,99844
2018-12-20T00:36:29.000Z,99846
2018-12-20T00:38:29.000Z,99847
2018-12-20T00:40:29.000Z,99847
2018-12-20T00:41:29.000Z,99840
2018-12-20T00:43:29.000Z,99844
2018-12-20T00:44:29.000Z,99840
2018-12-20T00:46:29.000Z,99838
2018-12-20T00:47:44.000Z,99838
2018-12-20T00:49:14.000Z,99836
2018-12-20T00:50:29.000Z,99837
2018-12-20T00:52:44.000Z,99840
2018-12-20T00:54:29.000Z,99838
2018-12-20T00:56:14.000Z,99830
2018-12-20T00:57:29.000Z,99841
2018-12-20T00:59:44.000Z,99839
2018-12-20T01:01:28.000Z,99843
2018-12-20T01:02:29.000Z,99848
2018-12-20T01:04:14.000Z,99846
2018-12-20T01:05:29.000Z,99844
2018-12-20T01:07:44.000Z,99849
2018-12-20T01:08:44.000Z,99854
2018-12-20T01:10:29.000Z,99850
2018-12-20T01:11:44.000Z,99848
2018-12-20T01:13:44.000Z,99844
2018-12-20T01:15:29.000Z,99841
2018-12-20T01:17:29.000Z,99848
2018-12-20T01:18:44.000Z,99847
2018-12-20T01:20:29.000Z,99854
2018-12-20T01:21:29.000Z,99848
2018-12-20T01:23:14.000Z,99850
2018-12-20T01:24:29.000Z,99849
2018-12-20T01:25:44.000Z,99852
2018-12-20T01:27:14.000Z,99848
2018-12-20T01:29:14.000Z,99854
2018-12-20T01:30:29.000Z,99852
2018-12-20T01:32:28.000Z,99862
2018-12-20T01:33:29.000Z,99857
2018-12-20T01:34:44.000Z,99853
2018-12-20T01:36:14.000Z,99844
2018-12-20T01:38:29.000Z,99856
2018-12-20T01:40:44.000Z,99859
2018-12-20T01:41:44.000Z,99858
2018-12-20T01:43:29.000Z,99856
2018-12-20T01:45:14.000Z,99857
2018-12-20T01:46:29.000Z,99855
2018-12-20T01:48:44.000Z,99860
2018-12-20T01:49:44.000Z,99862
2018-12-20T01:51:44.000Z,99852
2018-12-20T01:53:44.000Z,99854
2018-12-20T01:55:29.000Z,99847
2018-12-20T01:56:29.000Z,99847
2018-12-20T01:58:44.000Z,99843
2018-12-20T02:00:44.000Z,99844
2018-12-20T02:02:29.000Z,99841
2018-12-20T02:04:29.000Z,99841
2018-12-20T02:05:44.000Z,99841
2018-12-20T02:07:29.000Z,99831
2018-12-20T02:09:14.000Z,99839
2018-12-20T02:10:44.000Z,99848
2018-12-20T02:12:44.000Z,99839
2018-12-20T02:14:14.000Z,99849
2018-12-20T02:15:14.000Z,99846
2018-12-20T02:16:44.000Z,99855
2018-12-20T02:18:44.000Z,99847
2018-12-20T02:20:44.000Z,99850
2018-12-20T02:22:44.000Z,99852
2018-12-20T02:24:29.000Z,99846
2018-12-20T02:25:29.000Z,99845
2018-12-20T02:27:29.000Z,99852
2018-12-20T02:29:29.000Z,99843
2018-12-20T02:31:44.000Z,99850
2018-12-20T02:33:44.000Z,99844
2018-12-20T02:35:14.000Z,99841
2018-12-20T02:36:29.000Z,99839
2018-12-20T02:38:14.000Z,99832
2018-12-20T02:39:29.000Z,99841
2018-12-20T02:41:44.000Z,99841
2018-12-20T02:43:44.000Z,99844
2018-12-20T02:45:14.000Z,99845
2018-12-20T02:47:29.000Z,99837
2018-12-20T02:48:44.000Z,99851
2018-12-20T02:50:29.000Z,99840
2018-12-20T02:52:29.000Z,99837
2018-12-20T02:53:44.000Z,99836
2018-12-20T02:55:14.000Z,99834
2018-12-20T02:57:29.000Z,99835
2018-12-20T02:59:14.000Z,99838
2018-12-20T03:00:29.000Z,99829
2018-12-20T03:01:44.000Z,99833
2018-12-20T03:03:29.000Z,99827
2018-12-20T03:04:44.000Z,99821
2018-12-20T03:06:44.000Z,99827
2018-12-20T03:08:14.000Z,99819
2018-12-20T03:09:14.000Z,99817
2018-12-20T03:10:29.000Z,99820
2018-12-20T03:12:44.000Z,99816
2018-12-20T03:14:14.000Z,99816
2018-12-20T03:16:29.000Z,99814
2018-12-20T03:18:14.000Z,99816
2018-12-20T03:19:29.000Z,99810
2018-12-20T03:20:44.000Z,99812
2018-12-20T03:22:14.000Z,99809
2018-12-20T03:24:14.000Z,99809
2018-12-20T03:26:14.000Z,99813
2018-12-20T03:27:29.000Z,99809
2018-12-20T03:29:14.000Z,99807
2018-12-20T03:30:44.000Z,99812
2018-12-20T03:32:44.000Z,99812
2018-12-20T03:34:44.000Z,99816
2018-12-20T03:36:14.000Z,99805
2018-12-20T03:37:29.000Z,99804
2018-12-20T03:39:14.000Z,99800
2018-12-20T03:40:44.000Z,99805
2018-12-20T03:42:14.000Z,99798
2018-12-20T03:43:29.000Z,99800
2018-12-20T03:44:29.000Z,99785
2018-12-20T03:46:29.000Z,99796
2018-12-20T03:48:14.000Z,99794
2018-12-20T03:49:29.000Z,99797
2018-12-20T03:50:44.000Z,99800
2018-12-20T03:52:29.000Z,99804
2018-12-20T03:54:29.000Z,99792
2018-12-20T03:55:44.000Z,99802
2018-12-20T03:57:44.000Z,99794
2018-12-20T03:59:29.000Z,99794
2018-12-20T04:01:29.000Z,99792
2018-12-20T04:03:14.000Z,99795
2018-12-20T04:04:29.000Z,99795
2018-12-20T04:06:44.000Z,99794
2018-12-20T04:08:44.000Z,99793
2018-12-20T04:10:14.000Z,99794
2018-12-20T04:11:14.000Z,99792
2018-12-20T04:13:28.000Z,99795
2018-12-20T04:15:14.000Z,99791
2018-12-20T04:17:14.000Z,99799
2018-12-20T04:19:14.000Z,99795
2018-12-20T04:20:29.000Z,99793
2018-12-20T04:22:14.000Z,99791
2018-12-20T04:23:44.000Z,99794
2018-12-20T04:25:29.000Z,99798
2018-12-20T04:27:29.000Z,99787
2018-12-20T04:29:14.000Z,99795
2018-12-20T04:31:14.000Z,99799
2018-12-20T04:32:29.000Z,99800
2018-12-20T04:34:29.000Z,99794
2018-12-20T04:35:44.000Z,99796
2018-12-20T04:37:29.000Z,99799
2018-12-20T04:39:14.000Z,99797
2018-12-20T04:40:44.000Z,99801
2018-12-20T04:42:44.000Z,99804
2018-12-20T04:44:44.000Z,99803
2018-12-20T04:46:29.000Z,99799
2018-12-20T04:48:29.000Z,99806
2018-12-20T04:50:29.000Z,99803
2018-12-20T04:51:29.000Z,99800
2018-12-20T04:53:28.000Z,99798
2018-12-20T04:54:29.000Z,99794
2018-12-20T04:55:29.000Z,99796
2018-12-20T04:57:14.000Z,99796
2018-12-20T04:58:44.000Z,99802
2018-12-20T05:00:44.000Z,99801
2018-12-20T05:02:44.000Z,99791
2018-12-20T05:03:44.000Z,99795
2018-12-20T05:05:44.000Z,99788
2018-12-20T05:07:13.000Z,99795
2018-12-20T05:08:29.000Z,99793
2018-12-20T05:10:44.000Z,99790
2018-12-20T05:12:29.000Z,99789
2018-12-20T05:13:44.000Z,99787
2018-12-20T05:15:44.000Z,99789
2018-12-20T05:17:14.000Z,99787
2018-12-20T05:18:29.000Z,99790
2018-12-20T05:20:44.000Z,99787
2018-12-20T05:22:29.000Z,99794
2018-12-20T05:23:29.000Z,99791
2018-12-20T05:25:44.000Z,99793
2018-12-20T05:27:29.000Z,99792
2018-12-20T05:29:29.000Z,99800
2018-12-20T05:31:44.000Z,99811
2018-12-20T05:33:44.000Z,99807
2018-12-20T05:35:14.000Z,99807
2018-12-20T05:36:29.000Z,99807
2018-12-20T05:37:44.000Z,99802
2018-12-20T05:39:14.000Z,99803
2018-12-20T05:40:44.000Z,99806
2018-12-20T05:42:29.000Z,99809
2018-12-20T05:44:29.000Z,99811
2018-12-20T05:46:44.000Z,99816
2018-12-20T05:48:44.000Z,99817
2018-12-20T05:49:44.000Z,99814
2018-12-20T05:50:44.000Z,99816
2018-12-20T05:52:44.000Z,99815
2018-12-20T05:54:44.000Z,99823
2018-12-20T05:56:14.000Z,99814
2018-12-20T05:57:44.000Z,99818
2018-12-20T05:59:44.000Z,99823
2018-12-20T06:01:29.000Z,99828
2018-12-20T06:03:29.000Z,99828
2018-12-20T06:04:44.000Z,99833
2018-12-20T06:06:44.000Z,99826
2018-12-20T06:08:44.000Z,99824
2018-12-20T06:10:29.000Z,99828
2018-12-20T06:11:44.000Z,99828
2018-12-20T06:13:29.000Z,99825
2018-12-20T06:15:29.000Z,99832
2018-12-20T06:16:29.000Z,99830
2018-12-20T06:17:29.000Z,99831
2018-12-20T06:19:14.000Z,99830
2018-12-20T06:20:29.000Z,99827
2018-12-20T06:21:29.000Z,99834
2018-12-20T06:22:44.000Z,99833
2018-12-20T06:23:44.000Z,99837
2018-12-20T06:25:29.000Z,99836
2018-12-20T06:27:44.000Z,99835
2018-12-20T06:29:29.000Z,99836
2018-12-20T06:30:44.000Z,99830
2018-12-20T06:31:44.000Z,99833
2018-12-20T06:33:29.000Z,99834
2018-12-20T06:34:44.000Z,99828
2018-12-20T06:35:44.000Z,99831
2018-12-20T06:37:29.000Z,99831
2018-12-20T06:38:44.000Z,99835
2018-12-20T06:39:44.000Z,99834
2018-12-20T06:41:44.000Z,99838
2018-12-20T06:42:44.000Z,99829
2018-12-20T06:43:44.000Z,99833
2018-12-20T06:45:29.000Z,99835
2018-12-20T06:47:44.000Z,99839
2018-12-20T06:48:44.000Z,99841
2018-12-20T06:50:44.000Z,99836
2018-12-20T06:52:44.000Z,99841
2018-12-20T06:54:44.000Z,99842
2018-12-20T06:56:29.000Z,99845
2018-12-20T06:57:44.000Z,99846
2018-12-20T06:58:44.000Z,99848
2018-12-20T06:59:44.000Z,99848
2018-12-20T07:01:44.000Z,99849
2018-12-20T07:03:44.000Z,99852
2018-12-20T07:05:44.000Z,99853
2018-12-20T07:07:44.000Z,99852
2018-12-20T07:09:44.000Z,99862
2018-12-20T07:10:44.000Z,99860
2018-12-20T07:11:44.000Z,99860
2018-12-20T07:13:44.000Z,99865
2018-12-20T07:14:44.000Z,99858
2018-12-20T07:16:44.000Z,99865
2018-12-20T07:17:44.000Z,99862
2018-12-20T07:19:44.000Z,99868
2018-12-20T07:21:44.000Z,99860
2018-12-20T07:23:29.000Z,99864
2018-12-20T07:24:44.000Z,99863
2018-12-20T07:25:44.000Z,99863
2018-12-20T07:27:44.000Z,99869
2018-12-20T07:28:44.000Z,99865
2018-12-20T07:29:44.000Z,99872
2018-12-20T07:31:44.000Z,99867
2018-12-20T07:33:44.000Z,99870
2018-12-20T07:35:29.000Z,99871
2018-12-20T07:36:44.000Z,99866
2018-12-20T07:37:44.000Z,99859
2018-12-20T07:39:44.000Z,99863
2018-12-20T07:41:44.000Z,99862
2018-12-20T07:42:44.000Z,99863
2018-12-20T07:44:44.000Z,99857
2018-12-20T07:46:14.000Z,99863
2018-12-20T07:47:44.000Z,99861
2018-12-20T07:49:29.000Z,99866
2018-12-20T07:50:44.000Z,99868
2018-12-20T07:51:44.000Z,99866
2018-12-20T07:53:29.000Z,99866
2018-12-20T07:54:44.000Z,99861
2018-12-20T07:55:44.000Z,99865
2018-12-20T07:57:44.000Z,99865
2018-12-20T07:59:44.000Z,99861
2018-12-20T08:01:44.000Z,99867
2018-12-20T08:02:44.000Z,99866
2018-12-20T08:04:44.000Z,99862
2018-12-20T08:06:44.000Z,99866
2018-12-20T08:08:44.000Z,99872
2018-12-20T08:10:14.000Z,99880
2018-12-20T08:11:44.000Z,99880
2018-12-20T08:13:44.000Z,99879
2018-12-20T08:14:44.000Z,99883
2018-12-20T08:16:29.000Z,99883
2018-12-20T08:17:44.000Z,99883
2018-12-20T08:19:29.000Z,99883
2018-12-20T08:21:44.000Z,99889
2018-12-20T08:23:29.000Z,99889
2018-12-20T08:24:44.000Z,99891
2018-12-20T08:25:44.000Z,99891
2018-12-20T08:27:29.000Z,99884
2018-12-20T08:28:44.000Z,99890
2018-12-20T08:29:44.000Z,99897
2018-12-20T08:31:44.000Z,99890
2018-12-20T08:32:44.000Z,99893
2018-12-20T08:34:29.000Z,99896
2018-12-20T08:35:44.000Z,99893
2018-12-20T08:37:29.000Z,99897
2018-12-20T08:38:44.000Z,99899
2018-12-20T08:39:44.000Z,99898
2018-12-20T08:41:44.000Z,99899
2018-12-20T08:43:44.000Z,99903
2018-12-20T08:44:44.000Z,99903
2018-12-20T08:46:29.000Z,99905
2018-12-20T08:48:44.000Z,99903
2018-12-20T08:49:44.000Z,99907
2018-12-20T08:51:44.000Z,99906
2018-12-20T08:53:44.000Z,99905
2018-12-20T08:55:44.000Z,99912
2018-12-20T08:57:44.000Z,99909
2018-12-20T08:59:44.000Z,99916
2018-12-20T09:01:44.000Z,99906
2018-12-20T09:03:29.000Z,99920
2018-12-20T09:04:44.000Z,99915
2018-12-20T09:06:29.000Z,99910
2018-12-20T09:07:44.000Z,99912
2018-12-20T09:09:29.000Z,99914
2018-12-20T09:10:44.000Z,99917
2018-12-20T09:12:29.000Z,99916
2018-12-20T09:13:44.000Z,99918
2018-12-20T09:15:44.000Z,99918
2018-12-20T09:16:44.000Z,99923
2018-12-20T09:18:44.000Z,99924
2018-12-20T09:20:29.000Z,99922
2018-12-20T09:22:44.000Z,99920
2018-12-20T09:24:44.000Z,99917
2018-12-20T09:26:29.000Z,99921
2018-12-20T09:28:44.000Z,99928
2018-12-20T09:30:29.000Z,99930
2018-12-20T09:32:44.000Z,99927
2018-12-20T09:34:30.000Z,99932
2018-12-20T09:35:44.000Z,99929
2018-12-20T09:36:44.000Z,99928
2018-12-20T09:37:44.000Z,99929
2018-12-20T09:39:29.000Z,99904
2018-12-20T09:41:44.000Z,99930
2018-12-20T09:42:44.000Z,99936
2018-12-20T09:43:44.000Z,99928
2018-12-20T09:45:44.000Z,99933
2018-12-20T09:46:45.000Z,99929
2018-12-20T09:48:44.000Z,99930
2018-12-20T09:50:44.000Z,99918
2018-12-20T09:52:44.000Z,99923
2018-12-20T09:54:44.000Z,99925
2018-12-20T09:56:44.000Z,99925
2018-12-20T09:57:44.000Z,99926
2018-12-20T09:59:44.000Z,99916
2018-12-20T10:00:44.000Z,99920
2018-12-20T10:02:29.000Z,99917
2018-12-20T10:03:44.000Z,99917
2018-12-20T10:05:29.000Z,99917
2018-12-20T10:06:44.000Z,99917
2018-12-20T10:08:44.000Z,99911
2018-12-20T10:10:44.000Z,99915
2018-12-20T10:12:44.000Z,99909
2018-12-20T10:13:45.000Z,99911
2018-12-20T10:15:44.000Z,99909
2018-12-20T10:17:14.000Z,99913
2018-12-20T10:18:29.000Z,99905
2018-12-20T10:19:44.000Z,99904
2018-12-20T10:21:44.000Z,99905
2018-12-20T10:23:44.000Z,99899
2018-12-20T10:24:44.000Z,99902
2018-12-20T10:26:44.000Z,99903
2018-12-20T10:28:44.000Z,99912
2018-12-20T10:30:44.000Z,99908
2018-12-20T10:32:44.000Z,99902
2018-12-20T10:34:44.000Z,99901
2018-12-20T10:36:44.000Z,99908
2018-12-20T10:38:44.000Z,99918
2018-12-20T10:40:44.000Z,99914
2018-12-20T10:42:45.000Z,99914
2018-12-20T10:44:44.000Z,99908
2018-12-20T10:45:44.000Z,99900
2018-12-20T10:47:29.000Z,99906
2018-12-20T10:48:44.000Z,99904
2018-12-20T10:50:29.000Z,99902
2018-12-20T10:51:44.000Z,99898
2018-12-20T10:53:44.000Z,99901
2018-12-20T10:55:44.000Z,99895
2018-12-20T10:57:44.000Z,99894
2018-12-20T10:59:44.000Z,99896
2018-12-20T11:01:44.000Z,99892
2018-12-20T11:03:44.000Z,99894
2018-12-20T11:05:44.000Z,99894
2018-12-20T11:07:44.000Z,99889
2018-12-20T11:09:44.000Z,99891
2018-12-20T11:11:44.000Z,99884
2018-12-20T11:13:29.000Z,99873
2018-12-20T11:14:44.000Z,99872
2018-12-20T11:15:44.000Z,99883
2018-12-20T11:17:30.000Z,99881
2018-12-20T11:19:44.000Z,99880
2018-12-20T11:20:44.000Z,99883
2018-12-20T11:22:29.000Z,99877
2018-12-20T11:26:54.000Z,99876
2018-12-20T11:28:24.000Z,99875
2018-12-20T11:29:24.000Z,99872
2018-12-20T11:31:09.000Z,99879
2018-12-20T11:33:24.000Z,99876
2018-12-20T11:35:24.000Z,99874
2018-12-20T11:37:09.000Z,99883
2018-12-20T11:38:24.000Z,99874
2018-12-20T11:39:54.000Z,99874
2018-12-20T11:41:24.000Z,99868
2018-12-20T11:42:24.000Z,99873
2018-12-20T11:43:24.000Z,99878
2018-12-20T11:44:24.000Z,99871
2018-12-20T11:46:24.000Z,99879
2018-12-20T11:48:24.000Z,99871
2018-12-20T11:50:24.000Z,99871
2018-12-20T11:52:24.000Z,99868
2018-12-20T11:54:24.000Z,99874
2018-12-20T11:55:24.000Z,99871
2018-12-20T11:57:24.000Z,99871
2018-12-20T11:58:24.000Z,99869
2018-12-20T12:00:24.000Z,99865
2018-12-20T12:02:09.000Z,99864
2018-12-20T12:03:24.000Z,99867
2018-12-20T12:05:24.000Z,99871
2018-12-20T12:06:24.000Z,99870
2018-12-20T12:07:24.000Z,99872
2018-12-20T12:09:24.000Z,99869
2018-12-20T12:10:24.000Z,99877
2018-12-20T12:12:24.000Z,99867
2018-12-20T12:14:24.000Z,99864
2018-12-20T12:16:09.000Z,99872
2018-12-20T12:17:09.000Z,99872
2018-12-20T12:18:24.000Z,99875
2018-12-20T12:20:09.000Z,99867
2018-12-20T12:21:24.000Z,99861
2018-12-20T12:22:24.000Z,99862
2018-12-20T12:24:09.000Z,99865
2018-12-20T12:25:24.000Z,99869
2018-12-20T12:26:24.000Z,99866
2018-12-20T12:27:24.000Z,99863
2018-12-20T12:28:24.000Z,99860
2018-12-20T12:30:10.000Z,99855
2018-12-20T12:31:25.000Z,99857
2018-12-20T12:32:25.000Z,99858
2018-12-20T12:34:25.000Z,99868
2018-12-20T12:36:25.000Z,99862
2018-12-20T12:37:25.000Z,99874
2018-12-20T12:39:10.000Z,99865
2018-12-20T12:40:25.000Z,99863
2018-12-20T12:42:25.000Z,99870
2018-12-20T12:44:25.000Z,99867
2018-12-20T12:46:25.000Z,99878
2018-12-20T12:47:55.000Z,99869
2018-12-20T12:49:25.000Z,99887
2018-12-20T12:50:25.000Z,99865
2018-12-20T12:51:25.000Z,99869
2018-12-20T12:53:10.000Z,99868
2018-12-20T12:54:25.000Z,99867
2018-12-20T12:56:25.000Z,99864
2018-12-20T12:58:25.000Z,99868
2018-12-20T12:59:25.000Z,99876
2018-12-20T13:01:25.000Z,99870
2018-12-20T13:02:25.000Z,99864
2018-12-20T13:43:42.000Z,99864
2018-12-20T13:45:41.000Z,99868
2018-12-20T13:47:41.000Z,99862
2018-12-20T13:48:41.000Z,99857
2018-12-20T13:50:26.000Z,99861
2018-12-20T13:51:26.000Z,99852
2018-12-20T13:52:41.000Z,99862
2018-12-20T13:54:41.000Z,99857
2018-12-20T13:56:41.000Z,99857
2018-12-20T13:58:41.000Z,99858
2018-12-20T14:00:41.000Z,99843
2018-12-20T14:02:26.000Z,99844
2018-12-20T14:03:41.000Z,99850
2018-12-20T14:05:26.000Z,99852
2018-12-20T14:06:41.000Z,99846
2018-12-20T14:08:26.000Z,99855
2018-12-20T14:09:41.000Z,99855
2018-12-20T14:10:41.000Z,99857
2018-12-20T14:12:41.000Z,99864
2018-12-20T14:14:41.000Z,99856
2018-12-20T14:16:41.000Z,99859
2018-12-20T14:18:26.000Z,99860
2018-12-20T14:19:41.000Z,99862
2018-12-20T14:21:41.000Z,99858
2018-12-20T14:23:41.000Z,99860
2018-12-20T14:25:41.000Z,99863
2018-12-20T14:26:41.000Z,99864
2018-12-20T14:28:41.000Z,99861
2018-12-20T14:29:41.000Z,99864
2018-12-20T14:31:41.000Z,99856
2018-12-20T14:33:41.000Z,99859
2018-12-20T14:34:41.000Z,99864
2018-12-20T14:36:41.000Z,99864
2018-12-20T14:38:41.000Z,99864
2018-12-20T14:40:41.000Z,99863
2018-12-20T14:42:41.000Z,99877
2018-12-20T14:44:26.000Z,99879
2018-12-20T14:45:41.000Z,99874
2018-12-20T14:47:41.000Z,99880
2018-12-20T14:49:41.000Z,99865
2018-12-20T14:51:41.000Z,99860
2018-12-20T14:53:41.000Z,99867
2018-12-20T14:54:41.000Z,99866
2018-12-20T14:56:26.000Z,99863
2018-12-20T14:57:26.000Z,99863
2018-12-20T14:58:41.000Z,99860
2018-12-20T15:00:41.000Z,99861
2018-12-20T15:02:41.000Z,99850
2018-12-20T15:04:41.000Z,99861
2018-12-20T15:06:41.000Z,99867
2018-12-20T15:07:41.000Z,99871
2018-12-20T15:09:26.000Z,99877
2018-12-20T15:10:41.000Z,99870
2018-12-20T15:11:41.000Z,99872
2018-12-20T15:13:41.000Z,99873
2018-12-20T15:14:41.000Z,99874
2018-12-20T15:16:26.000Z,99879
2018-12-20T15:17:41.000Z,99879
2018-12-20T15:19:26.000Z,99883
2018-12-20T15:20:41.000Z,99884
2018-12-20T15:21:41.000Z,99885
2018-12-20T15:23:41.000Z,99882
2018-12-20T15:24:41.000Z,99888
2018-12-20T15:26:26.000Z,99889
2018-12-20T15:27:41.000Z,99890
2018-12-20T15:29:26.000Z,99888
2018-12-20T15:30:41.000Z,99883
2018-12-20T15:32:26.000Z,99890
2018-12-20T15:33:41.000Z,99892
2018-12-20T15:35:41.000Z,99891
2018-12-20T15:36:41.000Z,99897
2018-12-20T15:37:41.000Z,99887
2018-12-20T15:39:41.000Z,99891
2018-12-20T15:40:41.000Z,99895
2018-12-20T15:42:41.000Z,99898
2018-12-20T15:44:41.000Z,99891
2018-12-20T15:45:41.000Z,99894
2018-12-20T15:47:41.000Z,99893
2018-12-20T15:49:41.000Z,99902
2018-12-20T15:51:41.000Z,99902
2018-12-20T15:52:41.000Z,99904
2018-12-20T15:54:41.000Z,99901
2018-12-20T15:55:41.000Z,99907
2018-12-20T15:57:26.000Z,99904
2018-12-20T15:58:41.000Z,99906
2018-12-20T16:00:26.000Z,99906
2018-12-20T16:01:41.000Z,99905
2018-12-20T16:03:26.000Z,99911
2018-12-20T16:04:26.000Z,99912
2018-12-20T16:06:41.000Z,99918
2018-12-20T16:07:41.000Z,99912
2018-12-20T16:09:41.000Z,99911
2018-12-20T16:11:41.000Z,99908
2018-12-20T16:12:41.000Z,99911
2018-12-20T16:14:41.000Z,99911
2018-12-20T16:15:41.000Z,99913
2018-12-20T16:17:41.000Z,99922
2018-12-20T16:19:41.000Z,99914
2018-12-20T16:20:41.000Z,99912
2018-12-20T16:22:41.000Z,99912
2018-12-20T16:24:41.000Z,99923
2018-12-20T16:26:41.000Z,99916
2018-12-20T16:27:41.000Z,99921
2018-12-20T16:29:41.000Z,99921
2018-12-20T16:31:41.000Z,99921
2018-12-20T16:32:41.000Z,99929
2018-12-20T16:34:41.000Z,99933
2018-12-20T16:36:41.000Z,99927
2018-12-20T16:37:41.000Z,99931
2018-12-20T16:38:41.000Z,99934
2018-12-20T16:40:41.000Z,99930
2018-12-20T16:42:42.000Z,99937
2018-12-20T16:44:27.000Z,99932
2018-12-20T16:45:42.000Z,99933
2018-12-20T16:46:42.000Z,99937
2018-12-20T16:48:42.000Z,99930
2018-12-20T16:50:42.000Z,99931
2018-12-20T16:51:42.000Z,99939
2018-12-20T16:52:42.000Z,99937
2018-12-20T16:54:42.000Z,99933
2018-12-20T16:56:42.000Z,99932
2018-12-20T16:57:42.000Z,99933
2018-12-20T16:59:42.000Z,99932
2018-12-20T17:00:42.000Z,99928
2018-12-20T17:02:42.000Z,99924
2018-12-20T17:03:42.000Z,99922
2018-12-20T17:05:42.000Z,99925
2018-12-20T17:07:42.000Z,99928
2018-12-20T17:08:42.000Z,99929
2018-12-20T17:10:42.000Z,99929
2018-12-20T17:12:42.000Z,99937
2018-12-20T17:14:27.000Z,99930
2018-12-20T17:15:42.000Z,99925
2018-12-20T17:17:42.000Z,99931
2018-12-20T17:19:42.000Z,99938
2018-12-20T17:20:42.000Z,99941
2018-12-20T17:22:12.000Z,99938
2018-12-20T17:23:27.000Z,99939
2018-12-20T17:25:27.000Z,99940
2018-12-20T17:27:42.000Z,99940
2018-12-20T17:29:42.000Z,99942
2018-12-20T17:31:27.000Z,99938
2018-12-20T17:32:42.000Z,99941
2018-12-20T17:34:42.000Z,99943
2018-12-20T17:35:42.000Z,99942
2018-12-20T17:37:27.000Z,99908
2018-12-20T17:38:42.000Z,99939
2018-12-20T17:39:42.000Z,99939
2018-12-20T17:41:42.000Z,99936
2018-12-20T17:43:42.000Z,99933
2018-12-20T17:45:42.000Z,99934
2018-12-20T17:47:42.000Z,99940
2018-12-20T17:49:27.000Z,99940
2018-12-20T17:50:42.000Z,99946
2018-12-20T17:52:42.000Z,99940
2018-12-20T17:54:42.000Z,99939
2018-12-20T17:56:42.000Z,99935
2018-12-20T17:57:42.000Z,99936
2018-12-20T17:58:42.000Z,99929
2018-12-20T18:00:42.000Z,99932
2018-12-20T18:02:42.000Z,99927
2018-12-20T18:04:26.000Z,99929
2018-12-20T18:06:42.000Z,99925
2018-12-20T18:08:42.000Z,99927
2018-12-20T18:10:26.000Z,99931
2018-12-20T18:11:42.000Z,99925
2018-12-20T18:13:42.000Z,99929
2018-12-20T18:15:42.000Z,99940
2018-12-20T18:17:42.000Z,99937
2018-12-20T18:19:27.000Z,99921
2018-12-20T18:20:42.000Z,99926
2018-12-20T18:22:42.000Z,99935
2018-12-20T18:23:42.000Z,99931
2018-12-20T18:25:42.000Z,99923
2018-12-20T18:26:42.000Z,99923
2018-12-20T18:28:26.000Z,99925
2018-12-20T18:29:42.000Z,99931
2018-12-20T18:30:42.000Z,99927
2018-12-20T18:32:42.000Z,99927
2018-12-20T18:34:42.000Z,99923
2018-12-20T18:36:42.000Z,99927
2018-12-20T18:37:42.000Z,99929
2018-12-20T18:39:42.000Z,99924
2018-12-20T18:41:42.000Z,99933
2018-12-20T18:43:42.000Z,99928
2018-12-20T18:45:42.000Z,99932
2018-12-20T18:47:26.000Z,99929
2018-12-20T18:48:42.000Z,99933
2018-12-20T18:50:42.000Z,99930
2018-12-20T18:52:27.000Z,99930
2018-12-20T18:53:42.000Z,99928
2018-12-20T18:55:42.000Z,99931
2018-12-20T18:56:42.000Z,99925
2018-12-20T18:57:42.000Z,99924
2018-12-20T18:59:42.000Z,99934
2018-12-20T19:00:42.000Z,99932
2018-12-20T19:01:42.000Z,99935
2018-12-20T19:02:42.000Z,99925
2018-12-20T19:04:42.000Z,99935
2018-12-20T19:06:42.000Z,99928
2018-12-20T19:08:42.000Z,99928
2018-12-20T19:10:27.000Z,99932
2018-12-20T19:11:42.000Z,99931
2018-12-20T19:13:42.000Z,99935
2018-12-20T19:15:12.000Z,99933
2018-12-20T19:16:42.000Z,99938
2018-12-20T19:18:42.000Z,99940
2018-12-20T19:20:12.000Z,99943
2018-12-20T19:21:42.000Z,99938
2018-12-20T19:22:42.000Z,99936
2018-12-20T19:23:42.000Z,99935
2018-12-20T19:25:27.000Z,99942
2018-12-20T19:26:42.000Z,99944
2018-12-20T19:27:42.000Z,99946
2018-12-20T19:29:42.000Z,99942
2018-12-20T19:31:42.000Z,99941
2018-12-20T19:33:42.000Z,99932
2018-12-20T19:35:27.000Z,99940
2018-12-20T19:37:42.000Z,99932
2018-12-20T19:39:42.000Z,99934
2018-12-20T19:40:42.000Z,99930
2018-12-20T19:42:42.000Z,99938
2018-12-20T19:44:42.000Z,99937
2018-12-20T19:46:42.000Z,99943
2018-12-20T19:48:42.000Z,99933
2018-12-20T19:50:27.000Z,99938
2018-12-20T19:51:42.000Z,99940
2018-12-20T19:53:42.000Z,99947
2018-12-20T19:55:42.000Z,99949
2018-12-20T19:57:42.000Z,99950
2018-12-20T19:58:42.000Z,99943
2018-12-20T20:00:27.000Z,99950
2018-12-20T20:01:42.000Z,99949
2018-12-20T20:03:42.000Z,99943
2018-12-20T20:04:42.000Z,99939
2018-12-20T20:06:42.000Z,99943
2018-12-20T20:08:42.000Z,99939
2018-12-20T20:09:42.000Z,99941
2018-12-20T20:11:42.000Z,99941
2018-12-20T20:13:12.000Z,99950
2018-12-20T20:14:42.000Z,99948
2018-12-20T20:16:42.000Z,99947
2018-12-20T20:17:42.000Z,99943
2018-12-20T20:18:42.000Z,99944
2018-12-20T20:20:12.000Z,99934
2018-12-20T20:21:42.000Z,99934
2018-12-20T20:23:27.000Z,99929
2018-12-20T20:24:42.000Z,99938
2018-12-20T20:26:42.000Z,99934
2018-12-20T20:27:42.000Z,99937
2018-12-20T20:29:42.000Z,99937
2018-12-20T20:31:42.000Z,99932
2018-12-20T20:32:42.000Z,99925
2018-12-20T20:34:42.000Z,99930
2018-12-20T20:35:42.000Z,99919
2018-12-20T20:37:27.000Z,99921
2018-12-20T20:38:42.000Z,99918
2018-12-20T20:40:42.000Z,99918
2018-12-20T20:42:42.000Z,99921
2018-12-20T20:44:42.000Z,99923
2018-12-20T20:46:42.000Z,99916
2018-12-20T20:48:42.000Z,99919
2018-12-20T20:50:42.000Z,99919
2018-12-20T20:52:27.000Z,99919
2018-12-20T20:53:42.000Z,99925
2018-12-20T20:54:42.000Z,99925
2018-12-20T20:55:42.000Z,99925
2018-12-20T20:57:42.000Z,99922
2018-12-20T20:59:42.000Z,99919
2018-12-20T21:01:42.000Z,99924
2018-12-20T21:03:42.000Z,99926
2018-12-20T21:05:42.000Z,99919
2018-12-20T21:07:42.000Z,99922
2018-12-20T21:09:42.000Z,99917
2018-12-20T21:11:42.000Z,99916
2018-12-20T21:13:42.000Z,99920
2018-12-20T21:14:42.000Z,99926
2018-12-20T21:16:27.000Z,99933
2018-12-20T21:17:42.000Z,99929
2018-12-20T21:19:42.000Z,99928
2018-12-20T21:21:27.000Z,99931
2018-12-20T21:22:42.000Z,99930
2018-12-20T21:24:42.000Z,99936
2018-12-20T21:26:42.000Z,99927
2018-12-20T21:28:27.000Z,99927
2018-12-20T21:29:42.000Z,99931
2018-12-20T21:31:42.000Z,99935
2018-12-20T21:33:42.000Z,99928
2018-12-20T21:34:42.000Z,99929
2018-12-20T21:35:42.000Z,99926
2018-12-20T21:37:42.000Z,99929
2018-12-20T21:39:42.000Z,99928
2018-12-20T21:41:42.000Z,99941
2018-12-20T21:43:42.000Z,99940